Weather History for Houston / Dunn Helistop, TX

Change the Weather History Date:

Saturday, August 24, 2013

  Actual Average (KHOU) Record (KHOU)
Temperature  
Mean Temperature 88 °F 84 °F  
Max Temperature 95 °F 94 °F 105 °F (1980)
Min Temperature 80 °F 75 °F 54 °F (1891)
Cooling Degree Days 22 19  
Month to date cooling degree days 478  
Year to date cooling degree days 2251  
Since 1 June cooling degree days 1599  
Growing Degree Days 38 (Base 50)    
Moisture  
Dew Point 72 °F    
Average Humidity 63    
Maximum Humidity 79    
Minimum Humidity 41    
Precipitation  
Precipitation 0.00 in 0.14 in 2.48 in (1920)
Month to date precipitation 2.75  
Year to date precipitation 30.86  
Sea Level Pressure  
Sea Level Pressure 29.95 in    
Wind  
Wind Speed 6 mph (East)    
Max Wind Speed 21 mph    
Max Gust Speed 24 mph    
Visibility 8 miles    
Events      
T = Trace of Precipitation, MM = Missing Value Source: NWS Daily Summary

Daily Weather History Graph

Daily Weather History Graph

Search for Another Location

Airport:

Trip Planner

Search our weather history database for the weather conditions in past years. The results will help you decide how hot, cold, wet, or windy it might be!

Date:

Astronomy

Aug. 24, 2013 Rise Set
Actual Time 6:54 AM CDT 7:52 PM CDT
Civil Twilight 6:30 AM CDT 8:17 PM CDT
Nautical Twilight 6:00 AM CDT 8:46 PM CDT
Astronomical Twilight 5:31 AM CDT 9:15 PM CDT
Moon 10:11 PM CDT (8/24) 10:32 AM CDT (8/24)
Length of Visible Light 13h 47m
Length of Day
12h 57m
Waning Gibbous, 84% of the Moon is Illuminated
Aug 24
Waning Gibbous
Aug 28
Last Quarter
Sep 5
New
Sep 12
First Quarter
Sep 19
Full

Hourly Weather History & Observations

Time (CDT) Temp. Heat Index Dew Point Humidity Pressure Visibility Wind Dir Wind Speed Gust Speed Precip Events Conditions
12:15 AM 82.4 °F 87.2 °F 71.6 °F 70% 29.94 in 8.0 mi Calm Calm - N/A   Clear
12:35 AM 82.4 °F 88.2 °F 73.4 °F 74% 29.93 in 7.0 mi WSW 3.5 mph - N/A   Clear
12:55 AM 82.4 °F 88.2 °F 73.4 °F 74% 29.93 in 10.0 mi West 3.5 mph - N/A   Clear
1:15 AM 82.4 °F 88.2 °F 73.4 °F 74% 29.94 in 7.0 mi Calm Calm - N/A   Clear
1:35 AM 82.4 °F 88.2 °F 73.4 °F 74% 29.93 in 8.0 mi Calm Calm - N/A   Clear
1:55 AM 82.4 °F 88.2 °F 73.4 °F 74% 29.93 in 6.0 mi SE 3.5 mph - N/A   Clear
2:15 AM 82.4 °F 88.2 °F 73.4 °F 74% 29.93 in 10.0 mi SSE 5.8 mph - N/A   Clear
2:35 AM 80.6 °F 85.4 °F 73.4 °F 79% 29.93 in 10.0 mi SSE 4.6 mph - N/A   Clear
2:55 AM 80.6 °F 85.4 °F 73.4 °F 79% 29.93 in 10.0 mi South 4.6 mph - N/A   Clear
3:15 AM 80.6 °F 85.4 °F 73.4 °F 79% 29.93 in 10.0 mi Calm Calm - N/A   Clear
3:35 AM 80.6 °F 85.4 °F 73.4 °F 79% 29.94 in 5.0 mi Calm Calm - N/A   Clear
3:55 AM 80.6 °F 85.4 °F 73.4 °F 79% 29.94 in 9.0 mi Calm Calm - N/A   Clear
4:15 AM 80.6 °F 85.4 °F 73.4 °F 79% 29.94 in 10.0 mi Calm Calm - N/A   Scattered Clouds
4:35 AM 80.6 °F 85.4 °F 73.4 °F 79% 29.94 in 8.0 mi Calm Calm - N/A   Mostly Cloudy
4:55 AM 80.6 °F 85.4 °F 73.4 °F 79% 29.94 in 5.0 mi North 3.5 mph - N/A   Mostly Cloudy
5:15 AM 80.6 °F 85.4 °F 73.4 °F 79% 29.94 in 5.0 mi NNE 3.5 mph - N/A   Scattered Clouds
5:35 AM 80.6 °F 85.4 °F 73.4 °F 79% 29.94 in 7.0 mi North 5.8 mph - N/A   Clear
5:55 AM 80.6 °F 85.4 °F 73.4 °F 79% 29.94 in 10.0 mi North 6.9 mph - N/A   Clear
6:15 AM 80.6 °F 85.4 °F 73.4 °F 79% 29.94 in 5.0 mi North 5.8 mph - N/A   Clear
6:35 AM 80.6 °F 85.4 °F 73.4 °F 79% 29.95 in 5.0 mi NNE 6.9 mph - N/A   Clear
6:55 AM 80.6 °F 85.4 °F 73.4 °F 79% 29.96 in 3.0 mi NNE 4.6 mph - N/A   Clear
7:15 AM 80.6 °F 85.4 °F 73.4 °F 79% 29.96 in 4.0 mi NNE 5.8 mph - N/A   Clear
7:35 AM 80.6 °F 85.4 °F 73.4 °F 79% 29.97 in 5.0 mi NNE 4.6 mph - N/A   Clear
7:55 AM 80.6 °F 85.4 °F 73.4 °F 79% 29.98 in 5.0 mi NNE 3.5 mph - N/A   Clear
8:15 AM 82.4 °F 88.2 °F 73.4 °F 74% 29.98 in 4.0 mi NNE 5.8 mph - N/A   Clear
8:35 AM 84.2 °F 90.9 °F 73.4 °F 70% 29.99 in 5.0 mi NNE 5.8 mph - N/A   Clear
8:55 AM 84.2 °F 90.9 °F 73.4 °F 70% 29.99 in 6.0 mi NE 9.2 mph - N/A   Clear
9:15 AM 84.2 °F 90.9 °F 73.4 °F 70% 29.98 in 9.0 mi ENE 8.1 mph - N/A   Clear
9:35 AM 86.0 °F 93.4 °F 73.4 °F 66% 29.99 in 7.0 mi NNE 10.4 mph - N/A   Clear
9:55 AM 86.0 °F 93.4 °F 73.4 °F 66% 29.99 in 7.0 mi NNE 10.4 mph 17.3 mph N/A   Clear
10:15 AM 87.8 °F 95.6 °F 73.4 °F 62% 30.00 in 8.0 mi ENE 10.4 mph - N/A   Partly Cloudy
10:35 AM 89.6 °F 98.2 °F 73.4 °F 59% 30.00 in 10.0 mi ENE 11.5 mph - N/A   Partly Cloudy
10:55 AM 87.8 °F 95.6 °F 73.4 °F 62% 30.00 in 8.0 mi NE 11.5 mph - N/A   Partly Cloudy
11:15 AM 89.6 °F 96.2 °F 71.6 °F 55% 30.00 in 8.0 mi ENE 12.7 mph 20.7 mph N/A   Partly Cloudy
11:35 AM 89.6 °F 96.2 °F 71.6 °F 55% 30.00 in 9.0 mi NE 12.7 mph 16.1 mph N/A   Partly Cloudy
11:55 AM 91.4 °F 98.4 °F 71.6 °F 52% 30.00 in 9.0 mi ENE 10.4 mph 19.6 mph N/A   Partly Cloudy
12:15 PM 91.4 °F 96.8 °F 69.8 °F 49% 29.99 in 9.0 mi ENE 16.1 mph 19.6 mph N/A   Clear
12:35 PM 91.4 °F 96.8 °F 69.8 °F 49% 29.98 in 9.0 mi NE 11.5 mph 20.7 mph N/A   Clear
12:55 PM 91.4 °F 95.4 °F 68.0 °F 46% 29.98 in 10.0 mi East 15.0 mph 21.9 mph N/A   Clear
1:15 PM 93.2 °F 97.7 °F 68.0 °F 44% 29.97 in 9.0 mi East 17.3 mph 21.9 mph N/A   Clear
1:35 PM 93.2 °F 97.7 °F 68.0 °F 44% 29.97 in 10.0 mi East 11.5 mph 18.4 mph N/A   Partly Cloudy
1:55 PM 93.2 °F 97.7 °F 68.0 °F 44% 29.96 in 10.0 mi East 12.7 mph 20.7 mph N/A   Partly Cloudy
2:15 PM 95.0 °F 99.5 °F 68.0 °F 41% 29.96 in 10.0 mi ENE 10.4 mph - N/A   Clear
2:35 PM 93.2 °F 97.7 °F 68.0 °F 44% 29.96 in 10.0 mi ESE 11.5 mph 17.3 mph N/A   Partly Cloudy
2:55 PM 93.2 °F 97.7 °F 68.0 °F 44% 29.95 in 9.0 mi East 12.7 mph 19.6 mph N/A   Scattered Clouds
3:15 PM 95.0 °F 99.5 °F 68.0 °F 41% 29.94 in 9.0 mi East 12.7 mph 19.6 mph N/A   Partly Cloudy
3:35 PM 95.0 °F 99.5 °F 68.0 °F 41% 29.94 in 10.0 mi East 12.7 mph 17.3 mph N/A   Partly Cloudy
3:55 PM 93.2 °F 96.2 °F 66.2 °F 41% 29.93 in 10.0 mi NE 12.7 mph 18.4 mph N/A   Clear
4:15 PM 93.2 °F 96.2 °F 66.2 °F 41% 29.93 in 10.0 mi East 18.4 mph 23.0 mph N/A   Partly Cloudy
4:35 PM 93.2 °F 97.7 °F 68.0 °F 44% 29.93 in 10.0 mi East 13.8 mph 19.6 mph N/A   Partly Cloudy
4:55 PM 93.2 °F 97.7 °F 68.0 °F 44% 29.92 in 10.0 mi ESE 15.0 mph 23.0 mph N/A   Partly Cloudy
5:15 PM 93.2 °F 97.7 °F 68.0 °F 44% 29.92 in 10.0 mi ESE 17.3 mph 24.2 mph N/A   Partly Cloudy
5:35 PM 93.2 °F 97.7 °F 68.0 °F 44% 29.92 in 10.0 mi ESE 17.3 mph - N/A   Partly Cloudy
5:55 PM 93.2 °F 97.7 °F 68.0 °F 44% 29.91 in 9.0 mi ESE 20.7 mph - N/A   Partly Cloudy
6:15 PM 91.4 °F 98.4 °F 71.6 °F 52% 29.92 in 10.0 mi ESE 13.8 mph 18.4 mph N/A   Partly Cloudy
6:35 PM 91.4 °F 98.4 °F 71.6 °F 52% 29.91 in 10.0 mi SE 11.5 mph 17.3 mph N/A   Clear
6:55 PM 89.6 °F 96.2 °F 71.6 °F 55% 29.91 in 10.0 mi SE 13.8 mph - N/A   Clear
7:15 PM 89.6 °F 96.2 °F 71.6 °F 55% 29.91 in 10.0 mi SE 12.7 mph 19.6 mph N/A   Clear
7:35 PM 87.8 °F 93.8 °F 71.6 °F 58% 29.92 in 9.0 mi SE 12.7 mph - N/A   Clear
7:55 PM 86.0 °F 91.8 °F 71.6 °F 62% 29.92 in 10.0 mi SE 10.4 mph - N/A   Clear
8:15 PM 86.0 °F 91.8 °F 71.6 °F 62% 29.93 in 10.0 mi SE 9.2 mph - N/A   Clear
8:35 PM 86.0 °F 91.8 °F 71.6 °F 62% 29.93 in 10.0 mi SE 11.5 mph - N/A   Clear
8:55 PM 86.0 °F 93.4 °F 73.4 °F 66% 29.94 in 10.0 mi SE 13.8 mph - N/A   Clear
9:15 PM 84.2 °F 90.9 °F 73.4 °F 70% 29.95 in 10.0 mi SE 8.1 mph - N/A   Clear
9:35 PM 84.2 °F 90.9 °F 73.4 °F 70% 29.96 in 9.0 mi SE 6.9 mph - N/A   Clear
9:55 PM 84.2 °F 90.9 °F 73.4 °F 70% 29.97 in 10.0 mi SE 9.2 mph 16.1 mph N/A   Clear
10:15 PM 84.2 °F 90.9 °F 73.4 °F 70% 29.97 in 10.0 mi ESE 8.1 mph - N/A   Partly Cloudy
10:35 PM 84.2 °F 90.9 °F 73.4 °F 70% 29.98 in 10.0 mi SE 10.4 mph - N/A   Partly Cloudy
10:55 PM 84.2 °F 90.9 °F 73.4 °F 70% 29.98 in 10.0 mi SE 12.7 mph 19.6 mph N/A   Mostly Cloudy
11:15 PM 84.2 °F 90.9 °F 73.4 °F 70% 29.98 in 6.0 mi ESE 15.0 mph - N/A   Mostly Cloudy
11:35 PM 82.4 °F 88.2 °F 73.4 °F 74% 29.98 in 7.0 mi East 9.2 mph - N/A   Mostly Cloudy
11:55 PM 82.4 °F 88.2 °F 73.4 °F 74% 29.98 in 9.0 mi ESE 8.1 mph - N/A   Scattered Clouds